createdAt,value
2023-10-30T00:00:41.566Z,99646.60
2023-10-30T00:03:31.124Z,99643.20
2023-10-30T00:05:59.246Z,99638.40
2023-10-30T00:08:27.743Z,99639.20
2023-10-30T00:10:56.180Z,99651.40
2023-10-30T00:13:24.229Z,99652.20
2023-10-30T00:15:52.204Z,99652.20
2023-10-30T00:18:20.276Z,99637.60
2023-10-30T00:20:48.509Z,99637.20
2023-10-30T00:23:16.589Z,99640.80
2023-10-30T00:25:44.607Z,99640.60
2023-10-30T00:28:12.725Z,99643.20
2023-10-30T00:30:40.694Z,99646.80
2023-10-30T00:33:08.865Z,99652.20
2023-10-30T00:35:37.698Z,99650.20
2023-10-30T00:38:06.292Z,99658.60
2023-10-30T00:40:34.375Z,99660.80
2023-10-30T00:43:02.302Z,99657.00
2023-10-30T00:45:30.307Z,99655.80
2023-10-30T00:47:59.367Z,99658.40
2023-10-30T00:50:27.995Z,99666.00
2023-10-30T00:52:55.969Z,99673.40
2023-10-30T00:55:24.148Z,99685.80
2023-10-30T00:57:52.201Z,99683.60
2023-10-30T01:00:20.381Z,99684.40
2023-10-30T01:02:48.797Z,99688.00
2023-10-30T01:05:17.174Z,99694.80
2023-10-30T01:07:45.498Z,99685.60
2023-10-30T01:10:14.214Z,99679.60
2023-10-30T01:12:43.703Z,99689.60
2023-10-30T01:15:11.927Z,99692.20
2023-10-30T01:17:40.721Z,99699.60
2023-10-30T01:20:10.070Z,99704.00
2023-10-30T01:22:38.109Z,99696.80
2023-10-30T01:25:06.429Z,99708.40
2023-10-30T01:27:34.548Z,99710.60
2023-10-30T01:30:02.639Z,99714.60
2023-10-30T01:32:31.430Z,99711.80
2023-10-30T01:35:00.217Z,99711.20
2023-10-30T01:37:28.309Z,99714.80
2023-10-30T01:39:56.350Z,99705.20
2023-10-30T01:42:24.299Z,99689.60
2023-10-30T01:44:59.715Z,99696.20
2023-10-30T01:47:29.091Z,99707.60
2023-10-30T01:49:58.919Z,99704.60
2023-10-30T01:52:29.602Z,99708.80
2023-10-30T01:54:58.185Z,99717.60
2023-10-30T01:57:28.629Z,99717.00
2023-10-30T01:59:58.241Z,99725.40
2023-10-30T02:02:29.913Z,99720.80
2023-10-30T02:04:58.072Z,99721.80
2023-10-30T02:07:26.184Z,99725.00
2023-10-30T02:09:55.446Z,99719.40
2023-10-30T02:12:23.516Z,99720.20
2023-10-30T02:14:52.410Z,99729.00
2023-10-30T02:17:20.599Z,99731.60
2023-10-30T02:19:49.075Z,99737.40
2023-10-30T02:22:17.315Z,99742.20
2023-10-30T02:24:45.580Z,99741.00
2023-10-30T02:27:13.600Z,99746.80
2023-10-30T02:29:42.122Z,99749.80
2023-10-30T02:32:10.294Z,99753.80
2023-10-30T02:34:38.456Z,99760.40
2023-10-30T02:37:06.629Z,99764.40
2023-10-30T02:39:36.080Z,99766.80
2023-10-30T02:42:05.839Z,99765.40
2023-10-30T02:44:34.510Z,99765.60
2023-10-30T02:47:02.649Z,99765.80
2023-10-30T02:49:30.855Z,99761.80
2023-10-30T02:51:58.897Z,99754.60
2023-10-30T02:54:26.879Z,99746.00
2023-10-30T02:56:55.265Z,99748.80
2023-10-30T02:59:23.639Z,99758.60
2023-10-30T03:01:51.697Z,99763.60
2023-10-30T03:04:19.931Z,99768.20
2023-10-30T03:06:49.049Z,99763.80
2023-10-30T03:09:17.519Z,99755.40
2023-10-30T03:11:45.555Z,99762.60
2023-10-30T03:14:13.573Z,99780.80
2023-10-30T03:16:41.592Z,99783.20
2023-10-30T03:19:10.412Z,99784.80
2023-10-30T03:21:38.730Z,99798.20
2023-10-30T03:24:08.197Z,99783.20
2023-10-30T03:26:36.733Z,99781.40
2023-10-30T03:29:04.776Z,99773.60
2023-10-30T03:31:34.221Z,99774.40
2023-10-30T03:34:02.553Z,99779.20
2023-10-30T03:36:30.621Z,99782.40
2023-10-30T03:38:59.081Z,99784.20
2023-10-30T03:41:27.576Z,99779.80
2023-10-30T03:43:55.726Z,99784.60
2023-10-30T03:46:23.842Z,99778.60
2023-10-30T03:48:51.932Z,99780.60
2023-10-30T03:51:19.931Z,99771.80
2023-10-30T03:53:48.493Z,99762.40
2023-10-30T03:56:16.423Z,99762.80
2023-10-30T03:58:44.358Z,99764.60
2023-10-30T04:01:12.334Z,99756.60
2023-10-30T04:03:40.486Z,99777.80
2023-10-30T04:06:08.588Z,99777.20
2023-10-30T04:08:36.565Z,99761.80
2023-10-30T04:11:16.995Z,99770.00
2023-10-30T04:13:45.998Z,99791.20
2023-10-30T04:16:17.950Z,99802.00
2023-10-30T04:18:46.060Z,99804.80
2023-10-30T04:21:14.157Z,99807.20
2023-10-30T04:23:43.915Z,99804.80
2023-10-30T04:26:12.101Z,99794.60
2023-10-30T04:28:40.387Z,99798.20
2023-10-30T04:31:10.204Z,99779.40
2023-10-30T04:33:38.564Z,99789.00
2023-10-30T04:36:07.667Z,99788.40
2023-10-30T04:38:37.658Z,99792.00
2023-10-30T04:41:06.209Z,99793.60
2023-10-30T04:43:35.547Z,99789.80
2023-10-30T04:46:03.777Z,99773.60
2023-10-30T04:48:32.103Z,99780.40
2023-10-30T04:51:01.825Z,99789.60
2023-10-30T04:53:33.157Z,99815.40
2023-10-30T04:56:03.542Z,99801.80
2023-10-30T04:58:31.584Z,99797.80
2023-10-30T05:01:00.257Z,99805.00
2023-10-30T05:03:28.648Z,99796.00
2023-10-30T05:05:56.797Z,99785.80
2023-10-30T05:08:25.925Z,99813.20
2023-10-30T05:10:53.947Z,99813.80
2023-10-30T05:13:21.879Z,99798.60
2023-10-30T05:15:50.237Z,99792.00
2023-10-30T05:18:23.488Z,99800.60
2023-10-30T05:20:52.484Z,99786.40
2023-10-30T05:23:20.387Z,99771.80
2023-10-30T05:25:48.440Z,99781.40
2023-10-30T05:28:16.585Z,99790.60
2023-10-30T05:30:44.891Z,99796.40
2023-10-30T05:33:13.244Z,99804.60
2023-10-30T05:35:41.245Z,99807.60
2023-10-30T05:38:09.352Z,99809.40
2023-10-30T05:40:37.275Z,99816.20
2023-10-30T05:43:05.330Z,99813.60
2023-10-30T05:45:33.334Z,99815.00
2023-10-30T05:48:01.404Z,99837.40
2023-10-30T05:50:29.351Z,99833.40
2023-10-30T05:52:57.463Z,99843.00
2023-10-30T05:55:25.896Z,99848.40
2023-10-30T05:57:53.975Z,99837.00
2023-10-30T06:00:24.812Z,99834.60
2023-10-30T06:02:53.497Z,99831.00
2023-10-30T06:05:22.850Z,99827.00
2023-10-30T06:07:50.868Z,99817.40
2023-10-30T06:10:20.918Z,99813.20
2023-10-30T06:12:49.175Z,99822.80
2023-10-30T06:15:17.758Z,99821.00
2023-10-30T06:17:46.115Z,99811.40
2023-10-30T06:20:14.141Z,99820.40
2023-10-30T06:22:42.263Z,99839.40
2023-10-30T06:25:10.905Z,99855.40
2023-10-30T06:27:41.616Z,99862.20
2023-10-30T06:30:13.870Z,99868.80
2023-10-30T06:32:42.468Z,99868.40
2023-10-30T06:35:11.165Z,99865.40
2023-10-30T06:37:39.335Z,99869.40
2023-10-30T06:40:11.022Z,99880.60
2023-10-30T06:42:39.262Z,99888.60
2023-10-30T06:45:08.258Z,99890.20
2023-10-30T06:47:36.379Z,99885.60
2023-10-30T06:50:05.033Z,99894.80
2023-10-30T06:52:33.001Z,99887.00
2023-10-30T06:55:01.479Z,99892.80
2023-10-30T06:57:29.980Z,99885.80
2023-10-30T06:59:58.828Z,99881.60
2023-10-30T07:02:26.911Z,99880.60
2023-10-30T07:04:55.258Z,99879.80
2023-10-30T07:07:23.333Z,99875.00
2023-10-30T07:09:51.750Z,99878.60
2023-10-30T07:12:19.996Z,99889.00
2023-10-30T07:14:48.249Z,99898.20
2023-10-30T07:17:16.592Z,99895.40
2023-10-30T07:19:44.961Z,99893.60
2023-10-30T07:22:13.547Z,99884.00
2023-10-30T07:24:43.997Z,99883.40
2023-10-30T07:27:12.127Z,99861.60
2023-10-30T07:29:40.515Z,99842.20
2023-10-30T07:32:08.884Z,99841.20
2023-10-30T07:34:36.854Z,99832.60
2023-10-30T07:37:05.167Z,99837.40
2023-10-30T07:39:33.625Z,99842.40
2023-10-30T07:42:02.710Z,99843.20
2023-10-30T07:44:30.819Z,99839.40
2023-10-30T07:46:58.884Z,99831.00
2023-10-30T07:49:26.884Z,99823.40
2023-10-30T07:51:54.861Z,99827.60
2023-10-30T07:54:23.676Z,99837.80
2023-10-30T07:56:51.647Z,99842.00
2023-10-30T07:59:20.019Z,99840.00
2023-10-30T08:01:48.651Z,99846.20
2023-10-30T08:04:17.164Z,99861.20
2023-10-30T08:06:45.456Z,99850.00
2023-10-30T08:09:13.446Z,99841.40
2023-10-30T08:11:41.462Z,99847.40
2023-10-30T08:14:10.119Z,99848.80
2023-10-30T08:16:38.413Z,99876.60
2023-10-30T08:19:06.466Z,99908.00
2023-10-30T08:21:34.581Z,99907.40
2023-10-30T08:24:02.784Z,99903.40
2023-10-30T08:26:30.889Z,99912.40
2023-10-30T08:28:59.243Z,99914.00
2023-10-30T08:31:28.014Z,99919.20
2023-10-30T08:33:58.561Z,99920.80
2023-10-30T08:36:26.785Z,99917.20
2023-10-30T08:38:55.792Z,99925.20
2023-10-30T08:41:25.287Z,99931.60
2023-10-30T08:43:54.186Z,99934.60
2023-10-30T08:46:22.503Z,99930.80
2023-10-30T08:48:50.595Z,99929.20
2023-10-30T08:51:18.680Z,99924.60
2023-10-30T08:53:47.445Z,99927.00
2023-10-30T08:56:15.926Z,99925.80
2023-10-30T08:58:44.625Z,99927.00
2023-10-30T09:01:12.605Z,99925.60
2023-10-30T09:03:45.376Z,99930.00
2023-10-30T09:06:14.051Z,99925.40
2023-10-30T09:08:42.845Z,99918.80
2023-10-30T09:11:10.837Z,99937.80
2023-10-30T09:13:38.764Z,99956.80
2023-10-30T09:16:07.563Z,99956.00
2023-10-30T09:18:36.422Z,99973.60
2023-10-30T09:21:05.672Z,99956.00
2023-10-30T09:23:33.635Z,99951.80
2023-10-30T09:26:01.652Z,99973.00
2023-10-30T09:28:29.572Z,99951.00
2023-10-30T09:30:57.674Z,99950.00
2023-10-30T09:33:25.725Z,99942.40
2023-10-30T09:35:53.895Z,99940.60
2023-10-30T09:38:21.821Z,99935.40
2023-10-30T09:41:08.341Z,99936.00
2023-10-30T09:43:39.012Z,99933.20
2023-10-30T09:46:08.433Z,99919.80
2023-10-30T09:48:37.844Z,99918.60
2023-10-30T09:51:09.190Z,99916.20
2023-10-30T09:53:39.002Z,99899.60
2023-10-30T09:56:10.805Z,99896.80
2023-10-30T09:58:39.340Z,99894.00
2023-10-30T10:01:07.749Z,99890.60
2023-10-30T10:03:36.585Z,99894.60
2023-10-30T10:06:06.216Z,99899.20
2023-10-30T10:08:34.758Z,99904.40
2023-10-30T10:11:04.220Z,99906.60
2023-10-30T10:13:34.977Z,99908.40
2023-10-30T10:16:03.266Z,99901.80
2023-10-30T10:18:36.426Z,99890.40
2023-10-30T10:21:09.380Z,99896.40
2023-10-30T10:23:39.480Z,99900.60
2023-10-30T10:26:16.837Z,99900.40
2023-10-30T10:28:50.699Z,99891.00
2023-10-30T10:31:18.755Z,99889.00
2023-10-30T10:33:49.654Z,99905.60
2023-10-30T10:36:17.849Z,99916.60
2023-10-30T10:39:01.010Z,99911.00
2023-10-30T10:41:30.021Z,99912.00
2023-10-30T10:44:00.586Z,99908.00
2023-10-30T10:46:28.737Z,99915.40
2023-10-30T10:48:57.195Z,99913.60
2023-10-30T10:51:40.100Z,99914.80
2023-10-30T10:54:18.424Z,99922.60
2023-10-30T10:56:53.236Z,99918.60
2023-10-30T10:59:29.376Z,99925.80
2023-10-30T11:02:00.799Z,99922.00
2023-10-30T11:04:30.899Z,99917.80
2023-10-30T11:07:13.903Z,99921.20
2023-10-30T11:09:52.728Z,99928.20
2023-10-30T11:12:58.977Z,99929.80
2023-10-30T11:15:40.974Z,99934.60
2023-10-30T11:18:23.208Z,99946.40
2023-10-30T11:21:17.534Z,99939.40
2023-10-30T11:23:45.624Z,99946.40
2023-10-30T11:26:39.242Z,99942.80
2023-10-30T11:29:23.367Z,99952.80
2023-10-30T11:32:02.290Z,99943.60
2023-10-30T11:34:39.448Z,99943.00
2023-10-30T11:37:12.635Z,99950.00
2023-10-30T11:39:43.659Z,99942.20
2023-10-30T11:42:24.046Z,99927.80
2023-10-30T11:44:53.883Z,99931.20
2023-10-30T11:47:25.405Z,99934.60
2023-10-30T11:49:59.311Z,99928.20
2023-10-30T11:52:28.405Z,99911.00
2023-10-30T11:54:56.419Z,99891.20
2023-10-30T11:57:26.673Z,99896.60
2023-10-30T11:59:54.946Z,99909.00
2023-10-30T12:02:22.999Z,99922.00
2023-10-30T12:04:51.397Z,99937.20
2023-10-30T12:07:19.743Z,99940.60
2023-10-30T12:09:47.688Z,99936.80
2023-10-30T12:12:15.887Z,99932.40
2023-10-30T12:14:43.856Z,99936.20
2023-10-30T12:17:14.202Z,99939.60
2023-10-30T12:19:44.540Z,99939.40
2023-10-30T12:22:12.708Z,99939.20
2023-10-30T12:24:41.255Z,99936.60
2023-10-30T12:27:11.272Z,99929.20
2023-10-30T12:29:39.303Z,99924.00
2023-10-30T12:32:08.773Z,99929.20
2023-10-30T12:34:38.000Z,99923.00
2023-10-30T12:37:25.814Z,99914.20
2023-10-30T12:40:11.614Z,99909.20
2023-10-30T12:42:45.341Z,99903.80
2023-10-30T12:45:22.340Z,99904.00
2023-10-30T12:47:51.994Z,99903.20
2023-10-30T12:50:20.335Z,99906.40
2023-10-30T12:52:48.459Z,99894.80
2023-10-30T12:55:16.662Z,99889.80
2023-10-30T12:57:44.946Z,99884.80
2023-10-30T13:00:14.203Z,99884.00
2023-10-30T13:02:42.607Z,99878.00
2023-10-30T13:05:13.323Z,99884.40
2023-10-30T13:07:43.383Z,99884.00
2023-10-30T13:10:11.375Z,99881.20
2023-10-30T13:12:39.487Z,99883.80
2023-10-30T13:15:08.594Z,99877.80
2023-10-30T13:17:37.184Z,99880.60
2023-10-30T13:20:07.651Z,99875.20
2023-10-30T13:22:35.962Z,99872.20
2023-10-30T13:25:06.328Z,99874.60
2023-10-30T13:27:34.633Z,99874.40
2023-10-30T13:30:05.376Z,99880.20
2023-10-30T13:32:33.955Z,99872.40
2023-10-30T13:35:05.001Z,99859.00
2023-10-30T13:37:35.531Z,99862.00
2023-10-30T13:40:04.497Z,99868.40
2023-10-30T13:42:32.580Z,99868.80
2023-10-30T13:45:00.646Z,99869.00
2023-10-30T13:47:28.969Z,99868.40
2023-10-30T13:49:57.064Z,99860.80
2023-10-30T13:52:25.907Z,99854.60
2023-10-30T13:54:53.998Z,99860.00
2023-10-30T13:57:22.908Z,99854.80
2023-10-30T13:59:51.069Z,99856.20
2023-10-30T14:02:19.324Z,99849.60
2023-10-30T14:04:50.416Z,99840.60
2023-10-30T14:07:20.994Z,99837.60
2023-10-30T14:09:49.871Z,99830.20
2023-10-30T14:12:19.860Z,99824.80
2023-10-30T14:14:49.912Z,99816.20
2023-10-30T14:17:17.938Z,99809.20
2023-10-30T14:19:46.075Z,99817.00
2023-10-30T14:22:14.232Z,99817.60
2023-10-30T14:24:42.282Z,99810.60
2023-10-30T14:27:10.533Z,99803.20
2023-10-30T14:29:39.077Z,99803.40
2023-10-30T14:32:08.105Z,99808.40
2023-10-30T14:34:36.898Z,99806.40
2023-10-30T14:37:08.523Z,99807.80
2023-10-30T14:39:37.523Z,99813.60
2023-10-30T14:42:06.115Z,99803.80
2023-10-30T14:44:34.207Z,99805.20
2023-10-30T14:47:02.215Z,99802.20
2023-10-30T14:49:30.235Z,99802.20
2023-10-30T14:51:58.521Z,99801.40
2023-10-30T14:54:28.119Z,99802.80
2023-10-30T14:56:56.359Z,99805.00
2023-10-30T14:59:24.429Z,99803.20
2023-10-30T15:01:54.199Z,99796.60
2023-10-30T15:04:22.425Z,99801.80
2023-10-30T15:06:50.585Z,99794.40
2023-10-30T15:09:18.796Z,99796.40
2023-10-30T15:11:46.936Z,99797.80
2023-10-30T15:14:15.978Z,99795.20
2023-10-30T15:16:44.038Z,99802.80
2023-10-30T15:19:12.140Z,99807.00
2023-10-30T15:21:40.861Z,99807.80
2023-10-30T15:24:09.458Z,99807.40
2023-10-30T15:26:38.538Z,99795.60
2023-10-30T15:29:06.708Z,99794.20
2023-10-30T15:31:34.821Z,99797.60
2023-10-30T15:34:02.951Z,99787.80
2023-10-30T15:36:31.111Z,99787.80
2023-10-30T15:38:59.156Z,99786.60
2023-10-30T15:41:27.189Z,99784.00
2023-10-30T15:43:55.442Z,99770.20
2023-10-30T15:46:23.539Z,99771.00
2023-10-30T15:48:51.806Z,99768.00
2023-10-30T15:51:19.900Z,99768.20
2023-10-30T15:58:55.109Z,99772.80
2023-10-30T16:01:23.165Z,99778.40
2023-10-30T16:03:52.298Z,99779.60
2023-10-30T16:06:20.745Z,99778.80
2023-10-30T16:08:50.993Z,99777.00
2023-10-30T16:13:50.044Z,99780.60
2023-10-30T16:16:18.264Z,99783.20
2023-10-30T16:21:18.323Z,99777.60
2023-10-30T16:23:46.607Z,99784.00
2023-10-30T16:26:14.696Z,99782.00
2023-10-30T16:28:42.715Z,99779.80
2023-10-30T16:31:10.727Z,99775.80
2023-10-30T16:33:39.124Z,99774.00
2023-10-30T16:36:08.565Z,99774.60
2023-10-30T16:38:36.707Z,99775.20
2023-10-30T16:41:05.005Z,99773.60
2023-10-30T16:43:33.000Z,99775.60
2023-10-30T16:46:01.092Z,99771.80
2023-10-30T16:48:29.118Z,99760.60
2023-10-30T16:50:57.215Z,99762.40
2023-10-30T16:53:25.380Z,99761.00
2023-10-30T16:55:53.356Z,99758.20
2023-10-30T16:58:21.435Z,99749.80
2023-10-30T17:00:51.856Z,99747.20
2023-10-30T17:03:20.872Z,99742.40
2023-10-30T17:05:49.198Z,99742.40
2023-10-30T17:08:18.328Z,99740.20
2023-10-30T17:10:48.661Z,99733.80
2023-10-30T17:13:16.897Z,99731.60
2023-10-30T17:15:45.126Z,99730.00
2023-10-30T17:18:15.061Z,99723.60
2023-10-30T17:20:43.090Z,99722.40
2023-10-30T17:23:11.392Z,99723.20
2023-10-30T17:25:39.598Z,99719.40
2023-10-30T17:28:07.735Z,99713.60
2023-10-30T17:30:35.931Z,99716.80
2023-10-30T17:33:04.249Z,99711.20
2023-10-30T17:35:32.596Z,99710.40
2023-10-30T17:38:00.643Z,99710.60
2023-10-30T17:40:28.965Z,99713.80
2023-10-30T17:42:57.351Z,99702.20
2023-10-30T17:45:28.104Z,99700.60
2023-10-30T17:47:56.123Z,99700.20
2023-10-30T17:50:24.400Z,99698.80
2023-10-30T17:52:52.988Z,99698.60
2023-10-30T17:55:21.438Z,99699.20
2023-10-30T17:57:49.913Z,99694.00
2023-10-30T18:00:18.636Z,99689.40
2023-10-30T18:02:46.800Z,99683.80
2023-10-30T18:05:15.115Z,99679.80
2023-10-30T18:07:43.244Z,99680.60
2023-10-30T18:10:11.696Z,99679.40
2023-10-30T18:12:41.672Z,99676.40
2023-10-30T18:15:10.043Z,99677.20
2023-10-30T18:17:38.752Z,99675.40
2023-10-30T18:20:08.254Z,99668.40
2023-10-30T18:22:37.300Z,99665.20
2023-10-30T18:25:06.921Z,99652.00
2023-10-30T18:27:35.032Z,99647.40
2023-10-30T18:30:03.918Z,99639.80
2023-10-30T18:32:32.883Z,99634.60
2023-10-30T18:35:01.086Z,99629.60
2023-10-30T18:37:30.866Z,99616.80
2023-10-30T18:39:59.411Z,99616.00
2023-10-30T18:42:32.717Z,99611.00
2023-10-30T18:45:02.843Z,99604.40
2023-10-30T18:47:31.316Z,99589.40
2023-10-30T18:49:59.607Z,99582.20
2023-10-30T18:52:27.768Z,99580.60
2023-10-30T18:54:56.446Z,99581.60
2023-10-30T18:57:24.577Z,99570.20
2023-10-30T18:59:52.663Z,99563.40
2023-10-30T19:02:20.607Z,99561.60
2023-10-30T19:04:48.703Z,99566.80
2023-10-30T19:07:16.770Z,99562.80
2023-10-30T19:09:44.737Z,99549.60
2023-10-30T19:12:14.670Z,99548.00
2023-10-30T19:14:42.966Z,99536.60
2023-10-30T19:17:10.884Z,99524.40
2023-10-30T19:19:38.889Z,99523.40
2023-10-30T19:22:07.141Z,99517.60
2023-10-30T19:24:35.148Z,99513.00
2023-10-30T19:27:03.843Z,99509.60
2023-10-30T19:29:31.879Z,99510.40
2023-10-30T19:31:59.985Z,99515.60
2023-10-30T19:34:28.171Z,99502.60
2023-10-30T19:36:56.301Z,99492.60
2023-10-30T19:39:25.007Z,99491.00
2023-10-30T19:41:52.994Z,99484.60
2023-10-30T19:44:21.626Z,99479.60
2023-10-30T19:46:49.908Z,99480.00
2023-10-30T19:49:18.220Z,99472.60
2023-10-30T19:51:52.809Z,99465.80
2023-10-30T19:54:26.774Z,99452.40
2023-10-30T19:56:54.864Z,99455.60
2023-10-30T19:59:22.864Z,99453.40
2023-10-30T20:01:51.312Z,99446.60
2023-10-30T20:04:19.538Z,99443.60
2023-10-30T20:06:47.571Z,99447.00
2023-10-30T20:09:17.571Z,99442.00
2023-10-30T20:11:46.297Z,99439.20
2023-10-30T20:14:14.666Z,99433.80
2023-10-30T20:16:43.277Z,99429.20
2023-10-30T20:19:11.902Z,99422.40
2023-10-30T20:21:43.335Z,99413.60
2023-10-30T20:24:11.631Z,99400.80
2023-10-30T20:26:39.664Z,99390.00
2023-10-30T20:29:09.992Z,99380.00
2023-10-30T20:31:38.935Z,99368.00
2023-10-30T20:34:07.248Z,99370.80
2023-10-30T20:36:36.850Z,99373.60
2023-10-30T20:39:05.368Z,99371.80
2023-10-30T20:41:33.806Z,99366.40
2023-10-30T20:44:02.225Z,99356.20
2023-10-30T20:46:30.343Z,99356.00
2023-10-30T20:48:59.106Z,99345.60
2023-10-30T20:51:27.138Z,99340.60
2023-10-30T20:53:55.176Z,99337.00
2023-10-30T20:56:25.369Z,99332.60
2023-10-30T20:58:54.963Z,99325.40
2023-10-30T21:01:23.122Z,99321.00
2023-10-30T21:03:52.535Z,99313.60
2023-10-30T21:06:22.105Z,99318.60
2023-10-30T21:08:50.233Z,99324.40
2023-10-30T21:11:18.204Z,99328.80
2023-10-30T21:13:46.290Z,99331.40
2023-10-30T21:16:14.418Z,99326.00
2023-10-30T21:18:44.359Z,99327.00
2023-10-30T21:21:12.398Z,99327.00
2023-10-30T21:23:40.465Z,99316.80
2023-10-30T21:26:08.564Z,99316.80
2023-10-30T21:28:36.566Z,99312.40
2023-10-30T21:31:04.665Z,99311.40
2023-10-30T21:33:32.786Z,99313.00
2023-10-30T21:36:00.746Z,99316.00
2023-10-30T21:38:28.772Z,99318.20
2023-10-30T21:40:56.821Z,99311.20
2023-10-30T21:43:24.945Z,99304.20
2023-10-30T21:45:53.054Z,99297.40
2023-10-30T21:48:21.666Z,99291.80
2023-10-30T21:50:49.771Z,99293.00
2023-10-30T21:53:17.876Z,99286.60
2023-10-30T21:55:45.845Z,99283.60
2023-10-30T21:58:13.866Z,99283.80
2023-10-30T22:00:42.190Z,99279.20
2023-10-30T22:03:10.435Z,99278.40
2023-10-30T22:05:38.595Z,99267.20
2023-10-30T22:08:07.612Z,99262.20
2023-10-30T22:10:37.150Z,99251.20
2023-10-30T22:13:05.422Z,99248.80
2023-10-30T22:15:33.496Z,99238.40
2023-10-30T22:18:01.561Z,99233.00
2023-10-30T22:20:29.827Z,99222.80
2023-10-30T22:22:57.911Z,99208.40
2023-10-30T22:25:25.986Z,99200.60
2023-10-30T22:27:54.119Z,99192.60
2023-10-30T22:30:23.281Z,99189.00
2023-10-30T22:32:51.510Z,99179.60
2023-10-30T22:35:19.984Z,99187.40
2023-10-30T22:37:47.933Z,99186.60
2023-10-30T22:40:15.911Z,99180.60
2023-10-30T22:42:43.929Z,99182.20
2023-10-30T22:45:12.057Z,99184.40
2023-10-30T22:47:40.137Z,99179.40
2023-10-30T22:50:09.101Z,99177.00
2023-10-30T22:52:37.122Z,99173.20
2023-10-30T22:55:06.629Z,99174.60
2023-10-30T22:57:34.583Z,99165.00
2023-10-30T23:00:05.135Z,99152.60
2023-10-30T23:02:33.195Z,99147.80
2023-10-30T23:05:01.556Z,99141.00
2023-10-30T23:07:29.795Z,99129.40
2023-10-30T23:09:57.771Z,99131.60
2023-10-30T23:12:25.856Z,99128.40
2023-10-30T23:14:53.853Z,99133.00
2023-10-30T23:17:22.460Z,99122.40
2023-10-30T23:19:50.641Z,99115.20
2023-10-30T23:22:18.675Z,99115.20
2023-10-30T23:24:46.849Z,99098.80
2023-10-30T23:27:15.938Z,99092.20
2023-10-30T23:29:44.437Z,99087.00
2023-10-30T23:32:12.422Z,99082.20
2023-10-30T23:34:40.367Z,99093.40
2023-10-30T23:37:08.377Z,99088.60
2023-10-30T23:39:37.137Z,99105.80
2023-10-30T23:42:05.694Z,99112.60
2023-10-30T23:44:33.745Z,99101.40
2023-10-30T23:47:01.791Z,99116.00
2023-10-30T23:49:29.946Z,99107.40
2023-10-30T23:51:58.226Z,99086.40
2023-10-30T23:54:30.895Z,99071.60
2023-10-30T23:57:01.905Z,99066.00
2023-10-30T23:59:30.285Z,99043.20
